Time;durP1;ratioP1;P1;durP2;ratioP2;P2;SDS_P1;SDS_P2;PMS_P1;PMS_P2;Temp;Humidity;BMP_temperature;BMP_pressure;BME280_temperature;BME280_humidity;BME280_pressure;Samples;Min_cycle;Max_cycle;Signal;HPM_P1;HPM_P2
2023/07/06 00:02:15;;;;;;;;;;;21.20;78.10;;;-151.14;100.00;62537.16;5091561;28;19926;-83
2023/07/06 00:04:43;;;;;;;;;;;21.10;78.20;;;-151.14;100.00;62537.16;5092279;28;19920;-83
2023/07/06 00:07:12;;;;;;;;;;;21.10;78.20;;;-151.14;100.00;62537.16;5092021;28;20246;-83
2023/07/06 00:09:40;;;;;;;;;;;21.10;78.20;;;-151.14;100.00;62537.16;5092160;28;19920;-82
2023/07/06 00:12:10;;;;;;;;;;;21.10;78.30;;;-151.14;100.00;62537.16;5091590;28;19920;-83
2023/07/06 00:14:38;;;;;;;;;;;21.10;78.30;;;-151.14;100.00;62537.16;5075083;28;20208;-83
2023/07/06 00:17:11;;;;;;;;;;;21.10;78.30;;;-151.14;100.00;62537.16;5093270;28;19920;-82
2023/07/06 00:19:39;;;;;;;;;;;21.10;78.20;;;-151.14;100.00;62537.16;5075073;28;20243;-83
2023/07/06 00:22:07;;;;;;;;;;;21.10;78.20;;;-151.14;100.00;62537.16;5092543;28;19926;-82
2023/07/06 00:24:35;;;;;;;;;;;21.10;78.20;;;-151.14;100.00;62537.16;5091842;28;19927;-84
2023/07/06 00:27:04;;;;;;;;;;;21.10;78.20;;;-151.14;100.00;62537.16;5075083;28;20120;-83
2023/07/06 00:29:35;;;;;;;;;;;21.10;78.20;;;-151.14;100.00;62537.16;5091949;28;19920;-82
2023/07/06 00:32:26;;;;;;;;;;;21.10;78.20;;;-151.14;100.00;62537.16;5091143;28;19921;-83
2023/07/06 00:34:53;;;;;;;;;;;21.10;78.20;;;-151.14;100.00;62537.16;5090958;28;19927;-83
2023/07/06 00:37:22;;;;;;;;;;;21.10;78.20;;;-151.14;100.00;62537.16;5092390;28;19920;-83
2023/07/06 00:39:50;;;;;;;;;;;21.10;78.20;;;-151.14;100.00;62537.16;5091771;28;19920;-82
2023/07/06 00:42:19;;;;;;;;;;;21.10;78.10;;;-151.14;100.00;62537.16;5091274;28;20006;-83
2023/07/06 00:44:51;;;;;;;;;;;21.10;78.10;;;-151.14;100.00;62537.16;5074864;28;19926;-83
2023/07/06 00:47:21;;;;;;;;;;;21.10;78.00;;;-151.14;100.00;62537.16;5074809;28;19926;-83
2023/07/06 00:49:49;;;;;;;;;;;21.10;78.10;;;-151.14;100.00;62537.16;5074734;28;20119;-83
2023/07/06 00:52:16;;;;;;;;;;;21.10;78.00;;;-151.14;100.00;62537.16;5090869;28;19920;-83
2023/07/06 00:54:45;;;;;;;;;;;21.10;78.00;;;-151.14;100.00;62537.16;5091257;28;19927;-82
2023/07/06 00:57:13;;;;;;;;;;;21.10;78.10;;;-151.14;100.00;62537.16;5091220;28;19920;-82
2023/07/06 00:59:41;;;;;;;;;;;21.10;78.10;;;-151.14;100.00;62537.16;5074467;28;20234;-82
2023/07/06 01:02:14;;;;;;;;;;;21.10;78.00;;;-151.14;100.00;62537.16;5074071;28;19928;-82
2023/07/06 01:04:42;;;;;;;;;;;21.10;78.00;;;-151.14;100.00;62537.16;5074433;28;19920;-82
2023/07/06 01:07:11;;;;;;;;;;;21.10;78.10;;;-151.14;100.00;62537.16;5091223;28;19927;-82
2023/07/06 01:09:39;;;;;;;;;;;21.10;78.00;;;-151.14;100.00;62537.16;5091196;28;19920;-82
2023/07/06 01:12:09;;;;;;;;;;;21.10;78.10;;;-151.14;100.00;62537.16;5073778;28;20098;-82
2023/07/06 01:14:37;;;;;;;;;;;21.10;78.10;;;-151.14;100.00;62537.16;5107849;28;19982;-83
2023/07/06 01:17:08;;;;;;;;;;;21.10;78.00;;;-151.14;100.00;62537.16;5092100;28;19920;-83
2023/07/06 01:19:53;;;;;;;;;;;21.10;78.00;;;-151.14;100.00;62537.16;5091145;28;20250;-83
2023/07/06 01:22:30;;;;;;;;;;;21.10;78.00;;;-151.14;100.00;62537.16;5090371;28;19920;-82
2023/07/06 01:25:09;;;;;;;;;;;21.10;78.10;;;-151.14;100.00;62537.16;5090633;28;19926;-83
2023/07/06 01:27:48;;;;;;;;;;;21.10;78.10;;;-151.14;100.00;62537.16;5092069;28;19920;-83
2023/07/06 01:30:39;;;;;;;;;;;21.10;78.00;;;-151.14;100.00;62537.16;5090861;28;19919;-83
2023/07/06 01:33:11;;;;;;;;;;;21.10;78.20;;;-151.14;100.00;62537.16;5091528;28;19944;-82
2023/07/06 01:35:43;;;;;;;;;;;21.10;78.10;;;-151.14;100.00;62537.16;5091630;28;19926;-83
2023/07/06 01:38:11;;;;;;;;;;;21.10;78.10;;;-151.14;100.00;62537.16;5090829;28;19920;-83
2023/07/06 01:40:40;;;;;;;;;;;21.10;78.10;;;-151.14;100.00;62537.16;5090639;28;19920;-82
2023/07/06 01:43:09;;;;;;;;;;;21.00;78.00;;;-151.14;100.00;62537.16;5073477;28;19950;-83
2023/07/06 01:45:37;;;;;;;;;;;21.10;78.20;;;-151.14;100.00;62537.16;5091380;28;19920;-83
2023/07/06 01:48:07;;;;;;;;;;;21.10;78.20;;;-151.14;100.00;62537.16;5090264;28;19920;-83
2023/07/06 01:50:40;;;;;;;;;;;21.00;78.10;;;-151.14;100.00;62537.16;5073667;28;19920;-83
2023/07/06 01:53:11;;;;;;;;;;;21.00;78.20;;;-151.14;100.00;62537.16;5073363;28;19920;-83
2023/07/06 01:55:41;;;;;;;;;;;21.00;78.30;;;-151.14;100.00;62537.16;5090281;28;20181;-83
2023/07/06 01:58:11;;;;;;;;;;;21.00;78.40;;;-151.14;100.00;62537.16;5073755;28;19920;-82
2023/07/06 02:00:47;;;;;;;;;;;21.00;78.50;;;-151.14;100.00;62537.16;5073731;28;20213;-83
2023/07/06 02:03:16;;;;;;;;;;;21.00;78.50;;;-151.14;100.00;62537.16;5073245;28;19958;-83
2023/07/06 02:05:45;;;;;;;;;;;21.00;78.50;;;-151.14;100.00;62537.16;5073238;28;19998;-83
2023/07/06 02:08:15;;;;;;;;;;;21.00;78.50;;;-151.14;100.00;62537.16;5073615;28;19920;-83
2023/07/06 02:10:43;;;;;;;;;;;21.00;78.50;;;-151.14;100.00;62537.16;5090155;28;19927;-83
2023/07/06 02:13:12;;;;;;;;;;;21.00;78.40;;;-151.14;100.00;62537.16;5089738;28;19926;-82
2023/07/06 02:15:41;;;;;;;;;;;21.00;78.40;;;-151.14;100.00;62537.16;5089853;28;20101;-83
2023/07/06 02:18:09;;;;;;;;;;;21.00;78.30;;;-151.14;100.00;62537.16;5090176;28;19920;-83
2023/07/06 02:20:37;;;;;;;;;;;21.00;78.30;;;-151.14;100.00;62537.16;5089746;28;19920;-82
2023/07/06 02:23:11;;;;;;;;;;;21.00;78.20;;;-151.14;100.00;62537.16;5089694;28;19920;-82
2023/07/06 02:25:39;;;;;;;;;;;21.00;78.10;;;-151.14;100.00;62537.16;5089981;28;19920;-82
2023/07/06 02:28:08;;;;;;;;;;;21.00;78.10;;;-151.14;100.00;62537.16;5107070;28;19926;-82
2023/07/06 02:30:37;;;;;;;;;;;21.00;79.00;;;-151.14;100.00;62537.16;5107001;28;19942;-82
2023/07/06 02:33:06;;;;;;;;;;;21.00;78.00;;;-151.14;100.00;62537.16;5072775;28;19927;-82
2023/07/06 02:35:34;;;;;;;;;;;21.00;78.90;;;-151.14;100.00;62537.16;5089686;28;20013;-82
2023/07/06 02:38:02;;;;;;;;;;;21.00;78.20;;;-151.14;100.00;62537.16;5090901;28;19920;-83
2023/07/06 02:40:32;;;;;;;;;;;21.00;78.20;;;-151.14;100.00;62537.16;5073139;28;19920;-82
2023/07/06 02:42:59;;;;;;;;;;;21.00;78.20;;;-151.14;100.00;62537.16;5072543;28;19927;-83
2023/07/06 02:45:30;;;;;;;;;;;21.00;78.20;;;-151.14;100.00;62537.16;5089886;28;19920;-83
2023/07/06 02:47:59;;;;;;;;;;;21.00;78.20;;;-151.14;100.00;62537.16;5072974;28;20226;-83
2023/07/06 02:50:27;;;;;;;;;;;21.00;78.20;;;-151.14;100.00;62537.16;5091080;28;19920;-83
2023/07/06 02:52:55;;;;;;;;;;;21.00;78.10;;;-151.14;100.00;62537.16;5088862;28;19920;-83
2023/07/06 02:55:23;;;;;;;;;;;21.00;78.20;;;-151.14;100.00;62537.16;5071982;28;19920;-83
2023/07/06 02:57:52;;;;;;;;;;;21.00;78.20;;;-151.14;100.00;62537.16;5088827;28;19920;-83
2023/07/06 03:00:22;;;;;;;;;;;21.00;78.20;;;-151.14;100.00;62537.16;5092801;28;19920;-83
2023/07/06 03:02:50;;;;;;;;;;;21.00;78.20;;;-151.14;100.00;62537.16;5075805;28;19927;-82
2023/07/06 03:05:23;;;;;;;;;;;21.00;78.10;;;-151.14;100.00;62537.16;5093191;28;19921;-82
2023/07/06 03:07:51;;;;;;;;;;;20.90;78.20;;;-151.14;100.00;62537.16;5076125;28;19920;-83
2023/07/06 03:10:22;;;;;;;;;;;20.90;78.20;;;-151.14;100.00;62537.16;5076339;28;19920;-83
2023/07/06 03:12:51;;;;;;;;;;;20.90;78.30;;;-151.14;100.00;62537.16;5093646;28;19926;-83
2023/07/06 03:15:20;;;;;;;;;;;20.90;78.30;;;-151.14;100.00;62537.16;5076258;28;19920;-82
2023/07/06 03:17:48;;;;;;;;;;;20.90;78.30;;;-151.14;100.00;62537.16;5075963;28;19928;-82
2023/07/06 03:20:19;;;;;;;;;;;20.90;78.30;;;-151.14;100.00;62537.16;5076076;28;20230;-83
2023/07/06 03:22:48;;;;;;;;;;;21.00;78.20;;;-151.14;100.00;62537.16;5075373;28;19920;-83
2023/07/06 03:25:16;;;;;;;;;;;21.00;78.20;;;-151.14;100.00;62537.16;5094084;28;20094;-82
2023/07/06 03:27:47;;;;;;;;;;;21.00;78.20;;;-151.14;100.00;62537.16;5092903;28;19920;-82
2023/07/06 03:30:16;;;;;;;;;;;21.00;78.20;;;-151.14;100.00;62537.16;5075986;28;19920;-83
2023/07/06 03:32:46;;;;;;;;;;;21.00;78.20;;;-151.14;100.00;62537.16;5091860;28;19942;-83
2023/07/06 03:35:14;;;;;;;;;;;21.00;78.20;;;-151.14;100.00;62537.16;5092776;28;19920;-83
2023/07/06 03:37:42;;;;;;;;;;;21.00;78.10;;;-151.14;100.00;62537.16;5075710;28;19926;-83
2023/07/06 03:40:11;;;;;;;;;;;21.00;78.10;;;-151.14;100.00;62537.16;5092587;28;19920;-82
2023/07/06 03:42:40;;;;;;;;;;;21.00;78.00;;;-151.14;100.00;62537.16;5091679;28;20212;-83
2023/07/06 03:45:09;;;;;;;;;;;21.00;78.00;;;-151.14;100.00;62537.16;5092630;28;20094;-83
2023/07/06 03:47:38;;;;;;;;;;;21.00;78.10;;;-151.14;100.00;62537.16;5093563;28;19920;-83
2023/07/06 03:50:09;;;;;;;;;;;21.00;78.00;;;-151.14;100.00;62537.16;5092429;28;19920;-83
2023/07/06 03:52:38;;;;;;;;;;;21.00;78.00;;;-151.14;100.00;62537.16;5091898;28;20120;-83
2023/07/06 03:55:08;;;;;;;;;;;21.00;78.00;;;-151.14;100.00;62537.16;5092362;28;20224;-83
2023/07/06 03:57:36;;;;;;;;;;;21.00;78.00;;;-151.14;100.00;62537.16;5093154;28;19924;-83
2023/07/06 04:00:08;;;;;;;;;;;21.00;78.00;;;-151.14;100.00;62537.16;5093558;28;19920;-83
2023/07/06 04:02:39;;;;;;;;;;;21.00;78.10;;;-151.14;100.00;62537.16;5091653;28;19920;-82
2023/07/06 04:05:09;;;;;;;;;;;21.00;78.20;;;-151.14;100.00;62537.16;5075598;28;19920;-83
2023/07/06 04:07:38;;;;;;;;;;;21.00;78.30;;;-151.14;100.00;62537.16;5092081;28;19920;-82
2023/07/06 04:10:07;;;;;;;;;;;21.00;78.40;;;-151.14;100.00;62537.16;5092183;28;19921;-83
2023/07/06 04:12:37;;;;;;;;;;;21.00;78.40;;;-151.14;100.00;62537.16;5087969;28;19921;-83
2023/07/06 04:15:06;;;;;;;;;;;21.00;78.50;;;-151.14;100.00;62537.16;5072090;28;19927;-83
2023/07/06 04:17:36;;;;;;;;;;;21.00;78.50;;;-151.14;100.00;62537.16;5071816;28;20120;-82
2023/07/06 04:20:06;;;;;;;;;;;21.00;78.50;;;-151.14;100.00;62537.16;5071918;28;19928;-82
2023/07/06 04:22:38;;;;;;;;;;;21.00;78.50;;;-151.14;100.00;62537.16;5074451;28;19943;-82
2023/07/06 04:25:07;;;;;;;;;;;21.10;78.50;;;-151.14;100.00;62537.16;5093194;28;19920;-83
2023/07/06 04:27:35;;;;;;;;;;;21.10;78.50;;;-151.14;100.00;62537.16;5092797;28;20128;-82
2023/07/06 04:30:04;;;;;;;;;;;21.10;78.50;;;-151.14;100.00;62537.16;5075083;28;20224;-83
2023/07/06 04:32:33;;;;;;;;;;;21.10;78.50;;;-151.14;100.00;62537.16;5107881;28;19927;-83
2023/07/06 04:35:00;;;;;;;;;;;21.10;78.40;;;-151.14;100.00;62537.16;5091737;28;20116;-83
2023/07/06 04:37:29;;;;;;;;;;;21.10;78.50;;;-151.14;100.00;62537.16;5092647;28;19920;-83
2023/07/06 04:39:59;;;;;;;;;;;21.10;78.40;;;-151.14;100.00;62537.16;5091986;28;19926;-83
2023/07/06 04:42:28;;;;;;;;;;;21.10;78.40;;;-151.14;100.00;62537.16;5090811;28;19920;-83
2023/07/06 04:44:56;;;;;;;;;;;21.10;78.50;;;-151.14;100.00;62537.16;5091564;28;19920;-82
2023/07/06 04:47:24;;;;;;;;;;;21.10;78.40;;;-151.14;100.00;62537.16;5091459;28;19920;-83
2023/07/06 04:49:52;;;;;;;;;;;21.10;78.40;;;-151.14;100.00;62537.16;5074517;28;19926;-83
2023/07/06 04:52:20;;;;;;;;;;;21.10;78.40;;;-151.14;100.00;62537.16;5074235;28;19920;-82
2023/07/06 04:54:50;;;;;;;;;;;21.10;78.60;;;-151.14;100.00;62537.16;5074527;28;19920;-83
2023/07/06 04:57:20;;;;;;;;;;;21.10;78.60;;;-151.14;100.00;62537.16;5091274;28;19920;-83
2023/07/06 04:59:48;;;;;;;;;;;21.10;78.60;;;-151.14;100.00;62537.16;5091144;28;19920;-83
2023/07/06 05:02:16;;;;;;;;;;;21.10;78.50;;;-151.14;100.00;62537.16;5090701;28;19920;-83
2023/07/06 05:04:44;;;;;;;;;;;21.10;78.50;;;-151.14;100.00;62537.16;5074435;28;19924;-83
2023/07/06 05:07:12;;;;;;;;;;;21.10;78.50;;;-151.14;100.00;62537.16;5092312;28;19927;-83
2023/07/06 05:09:41;;;;;;;;;;;21.10;78.50;;;-151.14;100.00;62537.16;5090919;28;19926;-83
2023/07/06 05:12:10;;;;;;;;;;;21.10;78.50;;;-151.14;100.00;62537.16;5091731;28;19920;-83
2023/07/06 05:14:39;;;;;;;;;;;21.20;78.50;;;-151.14;100.00;62537.16;5074363;28;20234;-83
2023/07/06 05:17:07;;;;;;;;;;;21.20;78.50;;;-151.14;100.00;62537.16;5090752;28;20120;-83
2023/07/06 05:19:36;;;;;;;;;;;21.20;78.40;;;-151.14;100.00;62537.16;5090802;28;19920;-83
2023/07/06 05:22:04;;;;;;;;;;;21.20;78.40;;;-151.14;100.00;62537.16;5086527;28;19927;-83
2023/07/06 05:24:32;;;;;;;;;;;21.20;78.40;;;-151.14;100.00;62537.16;5070820;28;19921;-83
2023/07/06 05:27:00;;;;;;;;;;;21.20;78.40;;;-151.14;100.00;62537.16;5070751;28;20226;-83
2023/07/06 05:29:28;;;;;;;;;;;21.20;78.50;;;-151.14;100.00;62537.16;5070799;28;19921;-83
2023/07/06 05:31:57;;;;;;;;;;;21.20;78.60;;;-151.14;100.00;62537.16;5070197;28;19935;-83
2023/07/06 05:34:25;;;;;;;;;;;21.20;78.70;;;-151.14;100.00;62537.16;5054050;28;19924;-83
2023/07/06 05:36:53;;;;;;;;;;;21.20;78.80;;;-151.14;100.00;62537.16;5071626;28;19927;-83
2023/07/06 05:39:21;;;;;;;;;;;21.20;78.80;;;-151.14;100.00;62537.16;5070421;28;19942;-83
2023/07/06 05:41:49;;;;;;;;;;;21.20;79.00;;;-151.14;100.00;62537.16;5053495;28;20151;-83
2023/07/06 05:44:17;;;;;;;;;;;21.20;79.00;;;-151.14;100.00;62537.16;5070351;28;19927;-83
2023/07/06 05:46:46;;;;;;;;;;;21.20;78.80;;;-151.14;100.00;62537.16;5070591;28;19925;-83
2023/07/06 05:49:15;;;;;;;;;;;21.20;78.80;;;-151.14;100.00;62537.16;5071552;28;19927;-83
2023/07/06 05:51:43;;;;;;;;;;;21.20;78.70;;;-151.14;100.00;62537.16;5071101;28;19920;-83
2023/07/06 05:54:11;;;;;;;;;;;21.30;78.60;;;-151.14;100.00;62537.16;5070139;28;19925;-83
2023/07/06 05:56:40;;;;;;;;;;;21.30;78.40;;;-151.14;100.00;62537.16;5070247;28;19921;-83
2023/07/06 05:59:08;;;;;;;;;;;21.30;78.30;;;-151.14;100.00;62537.16;5053513;28;20226;-83
2023/07/06 06:01:36;;;;;;;;;;;21.40;78.00;;;-151.14;100.00;62537.16;5069933;28;19931;-83
2023/07/06 06:04:05;;;;;;;;;;;21.40;77.80;;;-151.14;100.00;62537.16;5070188;28;19920;-83
2023/07/06 06:06:46;;;;;;;;;;;21.50;77.70;;;-151.14;100.00;62537.16;5070188;28;20250;-83
2023/07/06 06:09:14;;;;;;;;;;;21.50;77.50;;;-151.14;100.00;62537.16;5070269;28;19921;-83
2023/07/06 06:11:42;;;;;;;;;;;21.60;77.30;;;-151.14;100.00;62537.16;5053042;28;20209;-83
2023/07/06 06:14:10;;;;;;;;;;;21.60;77.20;;;-151.14;100.00;62537.16;5070157;28;19920;-83
2023/07/06 06:16:39;;;;;;;;;;;21.60;76.90;;;-151.14;100.00;62537.16;5086854;28;19921;-84
2023/07/06 06:19:07;;;;;;;;;;;21.70;77.10;;;-151.14;100.00;62537.16;5069914;28;19927;-84
2023/07/06 06:21:36;;;;;;;;;;;21.80;77.00;;;-151.14;100.00;62537.16;5086487;28;19921;-83
2023/07/06 06:24:08;;;;;;;;;;;21.80;77.00;;;-151.14;100.00;62537.16;5052855;28;19926;-83
2023/07/06 06:26:35;;;;;;;;;;;21.80;76.80;;;-151.14;100.00;62537.16;5071062;28;20220;-83
2023/07/06 06:29:03;;;;;;;;;;;21.90;76.60;;;-151.14;100.00;62537.16;5069966;28;19920;-84
2023/07/06 06:31:32;;;;;;;;;;;21.90;76.40;;;-151.14;100.00;62537.16;5069630;28;19921;-84
2023/07/06 06:34:00;;;;;;;;;;;21.90;76.40;;;-151.14;100.00;62537.16;5072338;28;19935;-84
2023/07/06 06:36:27;;;;;;;;;;;22.00;76.10;;;-151.14;100.00;62537.16;5074406;28;20131;-83
2023/07/06 06:38:57;;;;;;;;;;;22.00;75.80;;;-151.14;100.00;62537.16;5056790;28;19927;-84
2023/07/06 06:41:25;;;;;;;;;;;22.00;76.60;;;-151.14;100.00;62537.16;5073931;28;19942;-83
2023/07/06 06:43:52;;;;;;;;;;;22.00;75.70;;;-151.14;100.00;62537.16;5073370;28;20154;-83
2023/07/06 06:46:20;;;;;;;;;;;22.00;75.80;;;-151.14;100.00;62537.16;5056808;28;19927;-84
2023/07/06 06:48:48;;;;;;;;;;;22.00;75.70;;;-151.14;100.00;62537.16;5073343;28;19927;-83
2023/07/06 06:51:16;;;;;;;;;;;22.00;75.50;;;-151.14;100.00;62537.16;5072585;28;19927;-84
2023/07/06 06:53:45;;;;;;;;;;;22.00;75.60;;;-151.14;100.00;62537.16;5074038;28;20201;-84
2023/07/06 06:56:14;;;;;;;;;;;22.00;75.60;;;-151.14;100.00;62537.16;5073065;28;19921;-84
2023/07/06 06:58:42;;;;;;;;;;;22.10;75.70;;;-151.14;100.00;62537.16;5074300;28;19942;-83
2023/07/06 07:01:10;;;;;;;;;;;22.10;75.50;;;-151.14;100.00;62537.16;5072615;28;19927;-83
2023/07/06 07:03:38;;;;;;;;;;;22.10;75.40;;;-151.14;100.00;62537.16;5077236;28;20140;-83
2023/07/06 07:06:11;;;;;;;;;;;22.20;75.30;;;-151.14;100.00;62537.16;5076239;28;19926;-84
2023/07/06 07:08:40;;;;;;;;;;;22.20;75.30;;;-151.14;100.00;62537.16;5093394;28;19926;-84
2023/07/06 07:11:07;;;;;;;;;;;22.20;75.20;;;-151.14;100.00;62537.16;5075691;28;20105;-84
2023/07/06 07:13:37;;;;;;;;;;;22.20;75.10;;;-151.14;100.00;62537.16;5076264;28;19920;-84
2023/07/06 07:16:06;;;;;;;;;;;22.30;75.10;;;-151.14;100.00;62537.16;5094029;28;19952;-83
2023/07/06 07:18:35;;;;;;;;;;;22.30;75.00;;;-151.14;100.00;62537.16;5092833;28;19921;-84
2023/07/06 07:21:02;;;;;;;;;;;22.30;74.80;;;-151.14;100.00;62537.16;5092811;28;19927;-84
2023/07/06 07:23:35;;;;;;;;;;;22.40;74.70;;;-151.14;100.00;62537.16;5092508;28;19920;-84
2023/07/06 07:26:04;;;;;;;;;;;22.50;74.60;;;-151.14;100.00;62537.16;5092760;28;19920;-84
2023/07/06 07:28:32;;;;;;;;;;;22.50;74.40;;;-151.14;100.00;62537.16;5093035;28;19920;-84
2023/07/06 07:31:01;;;;;;;;;;;22.50;74.40;;;-151.14;100.00;62537.16;5075791;28;19920;-84
2023/07/06 07:33:29;;;;;;;;;;;22.50;74.20;;;-151.14;100.00;62537.16;5075703;28;20116;-84
2023/07/06 07:36:00;;;;;;;;;;;22.60;74.10;;;-151.14;100.00;62537.16;5092508;28;19920;-84
2023/07/06 07:38:28;;;;;;;;;;;22.60;73.90;;;-151.14;100.00;62537.16;5092547;28;19920;-82
2023/07/06 07:40:57;;;;;;;;;;;22.60;73.80;;;-151.14;100.00;62537.16;5092716;28;19920;-84
2023/07/06 07:43:26;;;;;;;;;;;22.60;73.80;;;-151.14;100.00;62537.16;5075200;28;19924;-83
2023/07/06 07:45:55;;;;;;;;;;;22.50;73.80;;;-151.14;100.00;62537.16;5092089;28;19920;-83
2023/07/06 07:48:25;;;;;;;;;;;22.50;73.90;;;-151.14;100.00;62537.16;5109753;28;19920;-83
2023/07/06 07:50:56;;;;;;;;;;;22.50;73.90;;;-151.14;100.00;62537.16;5092295;28;19926;-84
2023/07/06 07:53:25;;;;;;;;;;;22.50;74.00;;;-151.14;100.00;62537.16;5075229;28;19921;-84
2023/07/06 07:55:54;;;;;;;;;;;22.50;74.00;;;-151.14;100.00;62537.16;5075569;28;19920;-83
2023/07/06 07:58:23;;;;;;;;;;;22.50;74.10;;;-151.14;100.00;62537.16;5075566;28;19946;-84
2023/07/06 08:00:51;;;;;;;;;;;22.40;74.00;;;-151.14;100.00;62537.16;5109215;28;20234;-84
2023/07/06 08:03:21;;;;;;;;;;;22.40;74.10;;;-151.14;100.00;62537.16;5093228;28;19920;-84
2023/07/06 08:05:52;;;;;;;;;;;22.40;74.10;;;-151.14;100.00;62537.16;5092082;28;19944;-84
2023/07/06 08:08:22;;;;;;;;;;;22.40;74.30;;;-151.14;100.00;62537.16;5109410;28;19920;-83
2023/07/06 08:10:50;;;;;;;;;;;22.40;74.30;;;-151.14;100.00;62537.16;5091886;28;20208;-83
2023/07/06 08:13:19;;;;;;;;;;;22.40;74.30;;;-151.14;100.00;62537.16;5074907;28;19920;-84
2023/07/06 08:15:47;;;;;;;;;;;22.40;74.30;;;-151.14;100.00;62537.16;5075295;28;20216;-84
2023/07/06 08:18:15;;;;;;;;;;;22.40;74.30;;;-151.14;100.00;62537.16;5092308;28;19920;-84
2023/07/06 08:20:44;;;;;;;;;;;22.30;74.40;;;-151.14;100.00;62537.16;5091890;28;19920;-83
2023/07/06 08:23:16;;;;;;;;;;;22.40;74.90;;;-151.14;100.00;62537.16;5074676;28;20123;-84
2023/07/06 08:25:44;;;;;;;;;;;22.40;74.60;;;-151.14;100.00;62537.16;5091987;28;20120;-84
2023/07/06 08:28:13;;;;;;;;;;;22.40;75.00;;;-151.14;100.00;62537.16;5092010;28;19920;-83
2023/07/06 08:30:42;;;;;;;;;;;22.40;74.80;;;-151.14;100.00;62537.16;5091903;28;20212;-84
2023/07/06 08:33:10;;;;;;;;;;;22.40;74.80;;;-151.14;100.00;62537.16;5091297;28;19920;-84
2023/07/06 08:35:41;;;;;;;;;;;22.40;74.80;;;-151.14;100.00;62537.16;5092774;28;19926;-83
2023/07/06 08:38:09;;;;;;;;;;;22.40;75.20;;;-151.14;100.00;62537.16;5091942;28;19921;-83
2023/07/06 08:40:40;;;;;;;;;;;22.40;75.60;;;-151.14;100.00;62537.16;5092809;28;19920;-83
2023/07/06 08:43:18;;;;;;;;;;;22.50;75.20;;;-151.14;100.00;62537.16;5091373;28;19921;-84
2023/07/06 08:45:46;;;;;;;;;;;22.50;75.30;;;-151.14;100.00;62537.16;5091744;28;19920;-84
2023/07/06 08:48:15;;;;;;;;;;;22.50;75.20;;;-151.14;100.00;62537.16;5092983;28;19920;-84
2023/07/06 08:50:48;;;;;;;;;;;22.50;75.00;;;-151.14;100.00;62537.16;5092673;28;19920;-84
2023/07/06 08:53:16;;;;;;;;;;;22.50;75.50;;;-151.14;100.00;62537.16;5091049;28;19920;-84
2023/07/06 08:55:46;;;;;;;;;;;22.40;75.00;;;-151.14;100.00;62537.16;5074095;28;20204;-84
2023/07/06 08:58:18;;;;;;;;;;;22.40;75.10;;;-151.14;100.00;62537.16;5074216;28;19926;-84
2023/07/06 09:00:46;;;;;;;;;;;22.50;76.20;;;-151.14;100.00;62537.16;5092567;28;19926;-84
2023/07/06 09:03:14;;;;;;;;;;;22.40;75.50;;;-151.14;100.00;62537.16;5092171;28;19920;-82
2023/07/06 09:05:46;;;;;;;;;;;22.40;75.30;;;-151.14;100.00;62537.16;5091289;28;19920;-84
2023/07/06 09:08:15;;;;;;;;;;;22.40;75.70;;;-151.14;100.00;62537.16;5074559;28;19920;-84
2023/07/06 09:10:43;;;;;;;;;;;22.40;75.50;;;-151.14;100.00;62537.16;5092365;28;20234;-84
2023/07/06 09:13:15;;;;;;;;;;;22.40;75.60;;;-151.14;100.00;62537.16;5090761;28;19942;-84
2023/07/06 09:15:48;;;;;;;;;;;22.40;75.70;;;-151.14;100.00;62537.16;5092352;28;19920;-84
2023/07/06 09:18:16;;;;;;;;;;;22.40;75.60;;;-151.14;100.00;62537.16;5074556;28;19920;-84
2023/07/06 09:20:45;;;;;;;;;;;22.40;75.80;;;-151.14;100.00;62537.16;5074148;28;19926;-84
2023/07/06 09:23:14;;;;;;;;;;;22.40;76.20;;;-151.14;100.00;62537.16;5090849;28;19920;-84
2023/07/06 09:25:43;;;;;;;;;;;22.50;75.50;;;-151.14;100.00;62537.16;5073980;28;19920;-84
2023/07/06 09:28:16;;;;;;;;;;;22.50;75.40;;;-151.14;100.00;62537.16;5074231;28;19921;-84
2023/07/06 09:30:45;;;;;;;;;;;22.50;75.50;;;-151.14;100.00;62537.16;5074280;28;19927;-84
2023/07/06 09:33:19;;;;;;;;;;;22.50;76.00;;;-151.14;100.00;62537.16;5090416;28;20116;-84
2023/07/06 09:35:48;;;;;;;;;;;22.50;76.30;;;-151.14;100.00;62537.16;5090936;28;19920;-84
2023/07/06 09:38:16;;;;;;;;;;;22.50;76.30;;;-151.14;100.00;62537.16;5090921;28;19920;-84
2023/07/06 09:40:45;;;;;;;;;;;22.50;76.10;;;-151.14;100.00;62537.16;5090773;28;19920;-84
2023/07/06 09:43:24;;;;;;;;;;;22.50;75.60;;;-151.14;100.00;62537.16;5073380;28;19920;-84
2023/07/06 09:45:52;;;;;;;;;;;22.60;75.80;;;-151.14;100.00;62537.16;5073968;28;19928;-84
2023/07/06 09:48:27;;;;;;;;;;;22.60;76.60;;;-151.14;100.00;62537.16;5090679;28;19920;-85
2023/07/06 09:50:58;;;;;;;;;;;22.60;75.90;;;-151.14;100.00;62537.16;5091864;28;19931;-83
2023/07/06 09:53:30;;;;;;;;;;;22.50;76.60;;;-151.14;100.00;62537.16;5073374;28;19920;-84
2023/07/06 09:55:58;;;;;;;;;;;22.50;76.70;;;-151.14;100.00;62537.16;5073745;28;19920;-84
2023/07/06 09:58:30;;;;;;;;;;;22.50;76.60;;;-151.14;100.00;62537.16;5073864;28;20230;-84
2023/07/06 10:01:03;;;;;;;;;;;22.50;76.80;;;-151.14;100.00;62537.16;5090580;28;19920;-84
2023/07/06 10:03:37;;;;;;;;;;;22.50;76.90;;;-151.14;100.00;62537.16;5090575;28;19948;-84
2023/07/06 10:06:09;;;;;;;;;;;22.50;76.90;;;-151.14;100.00;62537.16;5090602;28;19920;-84
2023/07/06 10:08:39;;;;;;;;;;;22.50;76.80;;;-151.14;100.00;62537.16;5071229;28;19927;-84
2023/07/06 10:11:15;;;;;;;;;;;22.50;77.00;;;-151.14;100.00;62537.16;5069605;28;19921;-84
2023/07/06 10:13:46;;;;;;;;;;;22.40;77.00;;;-151.14;100.00;62537.16;5053658;28;19929;-84
2023/07/06 10:16:19;;;;;;;;;;;22.40;77.40;;;-151.14;100.00;62537.16;5071243;28;19921;-84
2023/07/06 10:18:50;;;;;;;;;;;22.40;77.00;;;-151.14;100.00;62537.16;5071487;28;19920;-84
2023/07/06 10:21:22;;;;;;;;;;;22.40;76.80;;;-151.14;100.00;62537.16;5052906;28;19928;-84
2023/07/06 10:23:55;;;;;;;;;;;22.40;77.00;;;-151.14;100.00;62537.16;5069976;28;19920;-84
2023/07/06 10:26:26;;;;;;;;;;;22.40;76.50;;;-151.14;100.00;62537.16;5053129;28;19921;-84
2023/07/06 10:28:59;;;;;;;;;;;22.40;76.70;;;-151.14;100.00;62537.16;5070171;28;19931;-84
2023/07/06 10:31:43;;;;;;;;;;;22.30;76.60;;;-151.14;100.00;62537.16;5052694;28;19929;-84
2023/07/06 10:34:15;;;;;;;;;;;22.30;76.70;;;-151.14;100.00;62537.16;5086967;28;19920;-84
2023/07/06 10:36:43;;;;;;;;;;;22.30;77.00;;;-151.14;100.00;62537.16;5053024;28;20220;-84
2023/07/06 10:39:20;;;;;;;;;;;22.30;76.80;;;-151.14;100.00;62537.16;5086650;28;19920;-84
2023/07/06 10:41:50;;;;;;;;;;;22.30;76.70;;;-151.14;100.00;62537.16;5069165;28;19927;-85
2023/07/06 10:44:52;;;;;;;;;;;22.30;76.90;;;-151.14;100.00;62537.16;5069480;28;20234;-84
2023/07/06 10:47:39;;;;;;;;;;;22.20;76.90;;;-151.14;100.00;62537.16;4993786;28;19922;-84
2023/07/06 10:50:25;;;;;;;;;;;22.20;76.80;;;-151.14;100.00;62537.16;4993254;28;20221;-84
2023/07/06 10:53:02;;;;;;;;;;;22.20;76.90;;;-151.14;100.00;62537.16;5037767;28;19934;-84
2023/07/06 10:55:34;;;;;;;;;;;22.20;77.00;;;-151.14;100.00;62537.16;5073308;28;19920;-84
2023/07/06 10:58:22;;;;;;;;;;;22.20;77.10;;;-151.14;100.00;62537.16;5073103;28;19927;-84
2023/07/06 11:00:52;;;;;;;;;;;22.20;77.10;;;-151.14;100.00;62537.16;5072987;28;19920;-84
2023/07/06 11:03:23;;;;;;;;;;;22.20;77.10;;;-151.14;100.00;62537.16;5072245;28;19920;-84
2023/07/06 11:05:56;;;;;;;;;;;22.20;77.00;;;-151.14;100.00;62537.16;5072896;28;19920;-83
2023/07/06 11:09:04;;;;;;;;;;;22.20;77.20;;;-151.14;100.00;62537.16;5090749;28;19920;-84